Welcome to our new website - Welkom op onze vernieuwde website - Bienvenue sur notre nouveau site web - Willkommen auf unserer neuen Website


Onweer radar Meer informatie blitzortung!


Regen radar Meer informatie rain snow radar


Andere websites:

Onze vorige site

Leuven Template



METAR rapporten vliegvelden

   
EHGG - Leeuwarden
Gewijzigd: 25-05-2020 02:55
Bewolking  
Bewolking  
   Wind: Westen 13 km/h
Wind: Westen 13 km/h
Temperatuur: 12°C
Dauwpunt: 11°C
Vochtigheid: 94%
Barometer: 1029 hPa
Bewolking: Bewolking
Zicht: meer dan 10 km
Bewolking: Licht bewolkt 900 ft,
Bewolking 1100 ft
EHGG 250055Z AUTO 28007KT 250V310 9999 FEW009 OVC011 12/11 Q1029
EHGG - Terschelling
Gewijzigd: 25-05-2020 02:55
Bewolking  
Bewolking  
   Wind: Westen 13 km/h
Wind: Westen 13 km/h
Temperatuur: 12°C
Dauwpunt: 11°C
Vochtigheid: 94%
Barometer: 1029 hPa
Bewolking: Bewolking
Zicht: meer dan 10 km
Bewolking: Licht bewolkt 900 ft,
Bewolking 1100 ft
EHGG 250055Z AUTO 28007KT 250V310 9999 FEW009 OVC011 12/11 Q1029
EHAM - Amsterdam
Gewijzigd: 25-05-2020 02:55
Helder  
Helder  
   Wind: WNW 14.8 km/h
Wind: WNW 14.8 km/h
Temperatuur: 13°C
Dauwpunt: 11°C
Vochtigheid: 88%
Barometer: 1031 hPa
Zicht: meer dan 10 km
Bewolking: Helder
EHAM 250055Z 30008KT CAVOK 13/11 Q1031 NOSIG
EHBK - Maastricht
Gewijzigd: 25-05-2020 02:55
Bewolking  
Bewolking  
   Wind: Westen 5.6 km/h
Wind: Westen 5.6 km/h
Temperatuur: 13°C
Dauwpunt: 10°C
Vochtigheid: 82%
Barometer: 1032 hPa
Bewolking: Bewolking
Zicht: meer dan 10 km
Bewolking: Licht bewolkt 2700 ft,
Bewolking 3400 ft
EHBK 250055Z AUTO 28003KT 230V320 9999 FEW027 OVC034 13/10 Q1032
  

Script ontwikkeld door  Saratoga-weather.org Aangepast voor de template door  Weerstation Leuven

U vindt ons ook hier:

European Weather Network

Weather Underground

AWEKAS

Apparatuur in gebruik:

Weerstation
Davis VP2

Weerprogramma
Cumulus

Davis VP2

Cumulus